sensor_id;sensor_type;location;lat;lon;timestamp;pressure;altitude;pressure_sealevel;temperature;humidity
71126;BME280;58785;55.566;38.058;2023-03-21T00:01:28;99976.00;;;4.33;65.32
71126;BME280;58785;55.566;38.058;2023-03-21T00:03:54;99978.13;;;4.28;65.75
71126;BME280;58785;55.566;38.058;2023-03-21T00:06:20;99966.00;;;4.26;65.45
71126;BME280;58785;55.566;38.058;2023-03-21T00:08:45;99962.84;;;4.21;65.39
71126;BME280;58785;55.566;38.058;2023-03-21T00:11:11;99973.38;;;4.21;65.42
71126;BME280;58785;55.566;38.058;2023-03-21T00:13:38;99968.88;;;4.23;65.66
71126;BME280;58785;55.566;38.058;2023-03-21T00:16:08;99982.91;;;4.23;65.82
71126;BME280;58785;55.566;38.058;2023-03-21T00:18:35;99964.75;;;4.19;65.84
71126;BME280;58785;55.566;38.058;2023-03-21T00:21:07;99954.53;;;4.14;66.09
71126;BME280;58785;55.566;38.058;2023-03-21T00:23:34;99958.84;;;4.15;66.01
71126;BME280;58785;55.566;38.058;2023-03-21T00:26:02;99958.84;;;4.15;66.06
71126;BME280;58785;55.566;38.058;2023-03-21T00:28:27;99944.28;;;4.10;66.08
71126;BME280;58785;55.566;38.058;2023-03-21T00:30:59;99945.38;;;4.07;66.26
71126;BME280;58785;55.566;38.058;2023-03-21T00:33:26;99954.66;;;4.13;65.98
71126;BME280;58785;55.566;38.058;2023-03-21T00:35:51;99951.16;;;4.12;66.32
71126;BME280;58785;55.566;38.058;2023-03-21T00:38:18;99946.22;;;4.08;66.41
71126;BME280;58785;55.566;38.058;2023-03-21T00:40:44;99943.25;;;4.12;66.44
71126;BME280;58785;55.566;38.058;2023-03-21T00:43:10;99949.25;;;4.14;66.55
71126;BME280;58785;55.566;38.058;2023-03-21T00:45:49;99932.06;;;4.09;65.91
71126;BME280;58785;55.566;38.058;2023-03-21T00:48:16;99944.59;;;4.18;66.33
71126;BME280;58785;55.566;38.058;2023-03-21T00:50:44;99943.53;;;4.20;65.84
71126;BME280;58785;55.566;38.058;2023-03-21T00:53:11;99931.50;;;4.16;66.17
71126;BME280;58785;55.566;38.058;2023-03-21T00:55:37;99933.72;;;4.22;65.69
71126;BME280;58785;55.566;38.058;2023-03-21T00:58:04;99922.41;;;4.20;65.60
71126;BME280;58785;55.566;38.058;2023-03-21T01:00:30;99937.94;;;4.25;65.68
71126;BME280;58785;55.566;38.058;2023-03-21T01:02:57;99936.13;;;4.25;66.01
71126;BME280;58785;55.566;38.058;2023-03-21T01:05:31;99925.81;;;4.22;66.04
71126;BME280;58785;55.566;38.058;2023-03-21T01:08:16;99930.25;;;4.22;65.83
71126;BME280;58785;55.566;38.058;2023-03-21T01:10:45;99929.47;;;4.20;66.13
71126;BME280;58785;55.566;38.058;2023-03-21T01:13:13;99928.88;;;4.16;66.06
71126;BME280;58785;55.566;38.058;2023-03-21T01:15:45;99926.78;;;4.09;66.37
71126;BME280;58785;55.566;38.058;2023-03-21T01:18:12;99934.50;;;4.12;66.43
71126;BME280;58785;55.566;38.058;2023-03-21T01:20:40;99920.78;;;4.07;66.46
71126;BME280;58785;55.566;38.058;2023-03-21T01:23:06;99922.16;;;4.12;66.48
71126;BME280;58785;55.566;38.058;2023-03-21T01:25:32;99911.19;;;4.06;66.54
71126;BME280;58785;55.566;38.058;2023-03-21T01:27:58;99906.75;;;4.06;66.75
71126;BME280;58785;55.566;38.058;2023-03-21T01:30:23;99916.03;;;4.12;66.56
71126;BME280;58785;55.566;38.058;2023-03-21T01:32:49;99905.69;;;4.09;66.44
71126;BME280;58785;55.566;38.058;2023-03-21T01:35:15;99908.72;;;4.15;66.51
71126;BME280;58785;55.566;38.058;2023-03-21T01:37:40;99905.13;;;4.16;66.47
71126;BME280;58785;55.566;38.058;2023-03-21T01:40:10;99913.03;;;4.16;66.65
71126;BME280;58785;55.566;38.058;2023-03-21T01:42:38;99904.28;;;4.16;66.49
71126;BME280;58785;55.566;38.058;2023-03-21T01:45:57;99910.75;;;4.12;66.09
71126;BME280;58785;55.566;38.058;2023-03-21T01:47:51;99891.75;;;4.07;66.42
71126;BME280;58785;55.566;38.058;2023-03-21T01:50:17;99896.81;;;4.10;66.60
71126;BME280;58785;55.566;38.058;2023-03-21T01:52:46;99893.97;;;4.13;66.28
71126;BME280;58785;55.566;38.058;2023-03-21T01:55:15;99890.97;;;4.17;66.48
71126;BME280;58785;55.566;38.058;2023-03-21T01:57:48;99886.53;;;4.18;66.12
71126;BME280;58785;55.566;38.058;2023-03-21T02:00:19;99882.94;;;4.19;66.48
71126;BME280;58785;55.566;38.058;2023-03-21T02:02:49;99886.53;;;4.18;66.13
71126;BME280;58785;55.566;38.058;2023-03-21T02:05:20;99873.91;;;4.10;66.48
71126;BME280;58785;55.566;38.058;2023-03-21T02:07:47;99885.28;;;4.11;66.58
71126;BME280;58785;55.566;38.058;2023-03-21T02:10:15;99880.47;;;4.04;66.36
71126;BME280;58785;55.566;38.058;2023-03-21T02:12:41;99880.97;;;4.10;66.52
71126;BME280;58785;55.566;38.058;2023-03-21T02:15:08;99877.50;;;4.09;66.61
71126;BME280;58785;55.566;38.058;2023-03-21T02:17:57;99871.63;;;4.06;66.73
71126;BME280;58785;55.566;38.058;2023-03-21T02:22:59;99874.13;;;4.07;67.09
71126;BME280;58785;55.566;38.058;2023-03-21T02:25:42;99874.84;;;4.09;66.52
71126;BME280;58785;55.566;38.058;2023-03-21T02:28:39;99878.25;;;4.11;66.71
71126;BME280;58785;55.566;38.058;2023-03-21T02:31:29;99879.41;;;4.07;66.72
71126;BME280;58785;55.566;38.058;2023-03-21T02:42:06;99854.38;;;4.13;66.09
71126;BME280;58785;55.566;38.058;2023-03-21T02:47:21;99832.44;;;4.12;66.16
71126;BME280;58785;55.566;38.058;2023-03-21T02:49:49;99836.41;;;4.18;66.32
71126;BME280;58785;55.566;38.058;2023-03-21T02:52:23;99838.91;;;4.19;66.32
71126;BME280;58785;55.566;38.058;2023-03-21T02:54:51;99826.09;;;4.15;66.35
71126;BME280;58785;55.566;38.058;2023-03-21T02:57:18;99840.72;;;4.19;66.51
71126;BME280;58785;55.566;38.058;2023-03-21T02:59:46;99833.75;;;4.18;66.29
71126;BME280;58785;55.566;38.058;2023-03-21T03:02:14;99826.94;;;4.15;66.69
71126;BME280;58785;55.566;38.058;2023-03-21T03:04:40;99820.19;;;4.11;66.72
71126;BME280;58785;55.566;38.058;2023-03-21T03:20:47;99814.34;;;4.19;66.39
71126;BME280;58785;55.566;38.058;2023-03-21T03:23:38;99830.69;;;4.24;66.59
71126;BME280;58785;55.566;38.058;2023-03-21T03:26:32;99841.13;;;4.25;66.07
71126;BME280;58785;55.566;38.058;2023-03-21T03:28:59;99824.69;;;4.22;66.22
71126;BME280;58785;55.566;38.058;2023-03-21T03:31:31;99831.53;;;4.24;65.95
71126;BME280;58785;55.566;38.058;2023-03-21T03:34:01;99829.22;;;4.20;66.48
71126;BME280;58785;55.566;38.058;2023-03-21T03:36:35;99813.69;;;4.04;66.50
71126;BME280;58785;55.566;38.058;2023-03-21T03:39:05;99810.34;;;4.02;66.83
71126;BME280;58785;55.566;38.058;2023-03-21T03:41:39;99815.81;;;3.99;66.95
71126;BME280;58785;55.566;38.058;2023-03-21T03:44:07;99810.41;;;4.00;67.32
71126;BME280;58785;55.566;38.058;2023-03-21T03:46:41;99821.13;;;4.10;67.01
71126;BME280;58785;55.566;38.058;2023-03-21T03:49:14;99824.00;;;4.07;66.62
71126;BME280;58785;55.566;38.058;2023-03-21T03:54:37;99826.88;;;4.04;66.82
71126;BME280;58785;55.566;38.058;2023-03-21T03:57:05;99821.84;;;4.01;67.49
71126;BME280;58785;55.566;38.058;2023-03-21T03:59:35;99823.53;;;4.02;67.02
71126;BME280;58785;55.566;38.058;2023-03-21T04:02:01;99825.19;;;4.03;66.92
71126;BME280;58785;55.566;38.058;2023-03-21T04:04:27;99821.84;;;4.01;67.29
71126;BME280;58785;55.566;38.058;2023-03-21T04:06:53;99820.03;;;4.01;67.26
71126;BME280;58785;55.566;38.058;2023-03-21T04:09:18;99823.53;;;4.02;67.45
71126;BME280;58785;55.566;38.058;2023-03-21T04:11:44;99807.19;;;3.97;67.36
71126;BME280;58785;55.566;38.058;2023-03-21T04:14:10;99823.16;;;4.07;67.07
71126;BME280;58785;55.566;38.058;2023-03-21T04:16:36;99815.84;;;4.10;67.12
71126;BME280;58785;55.566;38.058;2023-03-21T04:19:02;99815.66;;;4.13;67.07
71126;BME280;58785;55.566;38.058;2023-03-21T04:21:28;99804.47;;;4.10;67.03
71126;BME280;58785;55.566;38.058;2023-03-21T04:23:54;99806.06;;;4.12;67.20
71126;BME280;58785;55.566;38.058;2023-03-21T04:26:21;99804.13;;;4.14;66.87
71126;BME280;58785;55.566;38.058;2023-03-21T04:28:48;99807.38;;;4.18;67.04
71126;BME280;58785;55.566;38.058;2023-03-21T04:34:54;99798.13;;;4.12;67.11
71126;BME280;58785;55.566;38.058;2023-03-21T04:37:20;99806.66;;;4.16;67.35
71126;BME280;58785;55.566;38.058;2023-03-21T04:39:49;99806.66;;;4.16;66.99
71126;BME280;58785;55.566;38.058;2023-03-21T04:42:16;99792.03;;;4.12;67.06
71126;BME280;58785;55.566;38.058;2023-03-21T04:44:45;99799.59;;;4.16;67.15
71126;BME280;58785;55.566;38.058;2023-03-21T04:47:11;99788.53;;;4.11;67.24
71126;BME280;58785;55.566;38.058;2023-03-21T04:49:38;99784.00;;;4.13;67.18
71126;BME280;58785;55.566;38.058;2023-03-21T04:52:04;99792.91;;;4.23;66.94
71126;BME280;58785;55.566;38.058;2023-03-21T04:54:30;99800.81;;;4.23;67.02
71126;BME280;58785;55.566;38.058;2023-03-21T04:56:57;99790.38;;;4.22;67.11
71126;BME280;58785;55.566;38.058;2023-03-21T04:59:23;99796.75;;;4.30;67.36
71126;BME280;58785;55.566;38.058;2023-03-21T05:01:49;99792.31;;;4.31;66.92
71126;BME280;58785;55.566;38.058;2023-03-21T05:04:16;99800.25;;;4.31;66.91
71126;BME280;58785;55.566;38.058;2023-03-21T05:06:43;99809.59;;;4.35;67.09
71126;BME280;58785;55.566;38.058;2023-03-21T05:09:10;99784.63;;;4.28;66.95
71126;BME280;58785;55.566;38.058;2023-03-21T05:11:37;99795.97;;;4.41;66.82
71126;BME280;58785;55.566;38.058;2023-03-21T05:14:05;99797.28;;;4.47;66.79
71126;BME280;58785;55.566;38.058;2023-03-21T05:16:30;99788.28;;;4.49;66.61
71126;BME280;58785;55.566;38.058;2023-03-21T05:18:56;99797.16;;;4.59;66.40
71126;BME280;58785;55.566;38.058;2023-03-21T05:21:24;99794.44;;;4.61;66.22
71126;BME280;58785;55.566;38.058;2023-03-21T05:23:54;99799.94;;;4.69;66.37
71126;BME280;58785;55.566;38.058;2023-03-21T05:26:23;99795.63;;;4.79;65.77
71126;BME280;58785;55.566;38.058;2023-03-21T05:28:49;99792.91;;;4.92;65.78
71126;BME280;58785;55.566;38.058;2023-03-21T05:31:16;99801.81;;;5.02;65.74
71126;BME280;58785;55.566;38.058;2023-03-21T05:33:43;99801.09;;;5.11;65.63
71126;BME280;58785;55.566;38.058;2023-03-21T05:36:09;99804.31;;;5.15;65.62
71126;BME280;58785;55.566;38.058;2023-03-21T05:38:36;99805.75;;;5.19;65.31
71126;BME280;58785;55.566;38.058;2023-03-21T05:41:02;99809.97;;;5.22;65.19
71126;BME280;58785;55.566;38.058;2023-03-21T05:43:28;99805.03;;;5.17;65.48
71126;BME280;58785;55.566;38.058;2023-03-21T05:45:54;99801.09;;;5.11;65.62
71126;BME280;58785;55.566;38.058;2023-03-21T05:48:19;99786.41;;;5.07;65.17
71126;BME280;58785;55.566;38.058;2023-03-21T05:50:45;99801.69;;;5.15;65.36
71126;BME280;58785;55.566;38.058;2023-03-21T05:53:11;99792.53;;;5.08;65.62
71126;BME280;58785;55.566;38.058;2023-03-21T05:55:37;99807.94;;;5.14;65.39
71126;BME280;58785;55.566;38.058;2023-03-21T05:58:03;99798.06;;;5.16;65.01
71126;BME280;58785;55.566;38.058;2023-03-21T06:00:29;99795.16;;;5.19;65.37
71126;BME280;58785;55.566;38.058;2023-03-21T06:06:35;99791.22;;;5.25;64.86
71126;BME280;58785;55.566;38.058;2023-03-21T06:09:01;99791.22;;;5.25;65.26
71126;BME280;58785;55.566;38.058;2023-03-21T06:11:32;99789.03;;;5.30;64.79
71126;BME280;58785;55.566;38.058;2023-03-21T06:13:58;99777.84;;;5.37;64.76
71126;BME280;58785;55.566;38.058;2023-03-21T06:16:24;99785.31;;;5.43;64.33
71126;BME280;58785;55.566;38.058;2023-03-21T06:18:50;99793.69;;;5.60;64.24
71126;BME280;58785;55.566;38.058;2023-03-21T06:21:15;99784.78;;;5.72;63.90
71126;BME280;58785;55.566;38.058;2023-03-21T06:27:21;99777.50;;;5.85;63.44
71126;BME280;58785;55.566;38.058;2023-03-21T06:29:47;99778.19;;;5.98;63.27
71126;BME280;58785;55.566;38.058;2023-03-21T06:32:13;99773.13;;;6.07;62.86
71126;BME280;58785;55.566;38.058;2023-03-21T06:34:38;99764.91;;;6.10;62.73
71126;BME280;58785;55.566;38.058;2023-03-21T06:37:04;99770.06;;;6.22;62.61
71126;BME280;58785;55.566;38.058;2023-03-21T06:39:30;99767.22;;;6.35;62.28
71126;BME280;58785;55.566;38.058;2023-03-21T06:41:57;99760.44;;;6.42;61.96
71126;BME280;58785;55.566;38.058;2023-03-21T06:44:23;99760.59;;;6.50;62.58
71126;BME280;58785;55.566;38.058;2023-03-21T06:46:52;99765.13;;;6.59;61.92
71126;BME280;58785;55.566;38.058;2023-03-21T06:49:17;99770.19;;;6.62;62.12
71126;BME280;58785;55.566;38.058;2023-03-21T06:51:44;99762.22;;;6.62;62.42
71126;BME280;58785;55.566;38.058;2023-03-21T06:54:10;99771.06;;;6.73;61.22
71126;BME280;58785;55.566;38.058;2023-03-21T06:56:35;99758.38;;;6.76;61.32
71126;BME280;58785;55.566;38.058;2023-03-21T06:59:01;99761.59;;;6.80;61.74
71126;BME280;58785;55.566;38.058;2023-03-21T07:01:27;99754.81;;;6.87;61.45
71126;BME280;58785;55.566;38.058;2023-03-21T07:03:55;99759.59;;;6.93;60.89
71126;BME280;58785;55.566;38.058;2023-03-21T07:06:23;99756.16;;;7.02;61.48
71126;BME280;58785;55.566;38.058;2023-03-21T07:08:54;99764.00;;;7.13;60.84
71126;BME280;58785;55.566;38.058;2023-03-21T07:11:21;99759.41;;;7.15;60.62
71126;BME280;58785;55.566;38.058;2023-03-21T07:13:47;99763.31;;;7.21;60.74
71126;BME280;58785;55.566;38.058;2023-03-21T07:16:16;99754.25;;;7.24;60.90
71126;BME280;58785;55.566;38.058;2023-03-21T07:18:43;99757.50;;;7.37;60.30
71126;BME280;58785;55.566;38.058;2023-03-21T07:21:08;99756.41;;;7.49;60.43
71126;BME280;58785;55.566;38.058;2023-03-21T07:23:35;99753.63;;;7.60;60.12
71126;BME280;58785;55.566;38.058;2023-03-21T07:26:03;99744.44;;;7.64;59.75
71126;BME280;58785;55.566;38.058;2023-03-21T07:28:28;99748.09;;;7.73;59.95
71126;BME280;58785;55.566;38.058;2023-03-21T07:30:58;99736.91;;;7.79;59.19
71126;BME280;58785;55.566;38.058;2023-03-21T07:33:24;99730.06;;;7.86;59.01
71126;BME280;58785;55.566;38.058;2023-03-21T07:35:51;99742.66;;;7.94;59.05
71126;BME280;58785;55.566;38.058;2023-03-21T07:38:18;99728.25;;;8.06;58.86
71126;BME280;58785;55.566;38.058;2023-03-21T07:40:45;99727.94;;;8.19;58.55
71126;BME280;58785;55.566;38.058;2023-03-21T07:43:11;99737.31;;;8.32;58.72
71126;BME280;58785;55.566;38.058;2023-03-21T07:45:37;99727.09;;;8.38;58.33
71126;BME280;58785;55.566;38.058;2023-03-21T07:48:02;99732.00;;;8.52;57.75
71126;BME280;58785;55.566;38.058;2023-03-21T07:50:28;99721.59;;;8.58;57.76
71126;BME280;58785;55.566;38.058;2023-03-21T07:52:54;99725.06;;;8.69;57.74
71126;BME280;58785;55.566;38.058;2023-03-21T07:55:20;99720.06;;;8.66;57.84
71126;BME280;58785;55.566;38.058;2023-03-21T07:57:49;99719.38;;;8.63;57.90
71126;BME280;58785;55.566;38.058;2023-03-21T08:00:17;99718.38;;;8.64;58.01
71126;BME280;58785;55.566;38.058;2023-03-21T08:02:48;99729.69;;;8.67;57.98
71126;BME280;58785;55.566;38.058;2023-03-21T08:05:19;99731.22;;;8.69;57.73
71126;BME280;58785;55.566;38.058;2023-03-21T08:07:45;99731.06;;;8.71;57.81
71126;BME280;58785;55.566;38.058;2023-03-21T08:10:11;99736.97;;;8.74;57.66
71126;BME280;58785;55.566;38.058;2023-03-21T08:12:38;99731.19;;;8.79;57.65
71126;BME280;58785;55.566;38.058;2023-03-21T08:15:04;99729.47;;;8.87;57.36
71126;BME280;58785;55.566;38.058;2023-03-21T08:17:30;99733.34;;;9.03;56.83
71126;BME280;58785;55.566;38.058;2023-03-21T08:19:56;99721.13;;;9.10;57.21
71126;BME280;58785;55.566;38.058;2023-03-21T08:22:24;99728.78;;;9.23;56.58
71126;BME280;58785;55.566;38.058;2023-03-21T08:24:49;99731.81;;;9.28;56.72
71126;BME280;58785;55.566;38.058;2023-03-21T08:27:15;99723.00;;;9.27;56.29
71126;BME280;58785;55.566;38.058;2023-03-21T08:29:40;99730.81;;;9.29;56.74
71126;BME280;58785;55.566;38.058;2023-03-21T08:32:07;99732.41;;;9.21;56.62
71126;BME280;58785;55.566;38.058;2023-03-21T08:34:33;99725.97;;;9.24;56.67
71126;BME280;58785;55.566;38.058;2023-03-21T08:36:59;99735.16;;;9.30;56.65
71126;BME280;58785;55.566;38.058;2023-03-21T08:39:25;99740.31;;;9.31;56.91
71126;BME280;58785;55.566;38.058;2023-03-21T08:41:51;99729.00;;;9.29;56.55
71126;BME280;58785;55.566;38.058;2023-03-21T08:44:17;99727.31;;;9.28;56.44
71126;BME280;58785;55.566;38.058;2023-03-21T08:46:42;99736.41;;;9.35;56.90
71126;BME280;58785;55.566;38.058;2023-03-21T08:49:08;99729.78;;;9.39;56.01
71126;BME280;58785;55.566;38.058;2023-03-21T08:51:34;99725.13;;;9.41;56.25
71126;BME280;58785;55.566;38.058;2023-03-21T08:54:02;99719.69;;;9.43;56.50
71126;BME280;58785;55.566;38.058;2023-03-21T08:56:28;99727.38;;;9.46;56.17
71126;BME280;58785;55.566;38.058;2023-03-21T08:58:53;99719.22;;;9.47;56.24
71126;BME280;58785;55.566;38.058;2023-03-21T09:01:19;99708.66;;;9.38;56.44
71126;BME280;58785;55.566;38.058;2023-03-21T09:03:45;99730.34;;;9.43;56.85
71126;BME280;58785;55.566;38.058;2023-03-21T09:06:11;99728.25;;;9.37;56.70
71126;BME280;58785;55.566;38.058;2023-03-21T09:08:39;99721.28;;;9.36;56.69
71126;BME280;58785;55.566;38.058;2023-03-21T09:11:07;99715.63;;;9.39;56.92
71126;BME280;58785;55.566;38.058;2023-03-21T09:13:33;99718.97;;;9.41;56.41
71126;BME280;58785;55.566;38.058;2023-03-21T09:15:59;99715.22;;;9.43;56.35
71126;BME280;58785;55.566;38.058;2023-03-21T09:18:27;99725.69;;;9.45;56.99
71126;BME280;58785;55.566;38.058;2023-03-21T09:21:16;99717.09;;;9.33;56.70
71126;BME280;58785;55.566;38.058;2023-03-21T09:23:45;99727.63;;;9.25;57.09
71126;BME280;58785;55.566;38.058;2023-03-21T09:26:11;99723.00;;;9.00;57.39
71126;BME280;58785;55.566;38.058;2023-03-21T09:28:38;99709.38;;;8.75;57.95
71126;BME280;58785;55.566;38.058;2023-03-21T09:31:05;99713.75;;;8.67;57.83
71126;BME280;58785;55.566;38.058;2023-03-21T09:33:32;99720.19;;;8.64;58.06
71126;BME280;58785;55.566;38.058;2023-03-21T09:36:00;99717.41;;;8.56;58.36
71126;BME280;58785;55.566;38.058;2023-03-21T09:38:26;99720.34;;;8.62;58.54
71126;BME280;58785;55.566;38.058;2023-03-21T09:44:09;99713.84;;;8.84;57.74
71126;BME280;58785;55.566;38.058;2023-03-21T09:46:51;99707.34;;;8.97;57.60
71126;BME280;58785;55.566;38.058;2023-03-21T09:51:51;99717.13;;;8.96;57.47
71126;BME280;58785;55.566;38.058;2023-03-21T09:54:30;99696.22;;;8.83;57.69
71126;BME280;58785;55.566;38.058;2023-03-21T09:57:02;99710.34;;;8.84;57.93
71126;BME280;58785;55.566;38.058;2023-03-21T09:59:36;99704.19;;;8.83;57.96
71126;BME280;58785;55.566;38.058;2023-03-21T10:02:34;99703.94;;;8.67;58.19
71126;BME280;58785;55.566;38.058;2023-03-21T10:05:10;99701.03;;;8.60;58.20
71126;BME280;58785;55.566;38.058;2023-03-21T10:07:40;99688.56;;;8.61;58.39
71126;BME280;58785;55.566;38.058;2023-03-21T10:10:16;99701.16;;;8.69;58.21
71126;BME280;58785;55.566;38.058;2023-03-21T10:12:44;99692.75;;;8.73;58.19
71126;BME280;58785;55.566;38.058;2023-03-21T10:15:17;99697.72;;;8.86;58.27
71126;BME280;58785;55.566;38.058;2023-03-21T10:17:50;99694.34;;;8.93;57.75
71126;BME280;58785;55.566;38.058;2023-03-21T10:20:19;99696.75;;;8.87;58.01
71126;BME280;58785;55.566;38.058;2023-03-21T10:22:47;99696.91;;;8.85;57.96
71126;BME280;58785;55.566;38.058;2023-03-21T10:25:16;99684.59;;;8.84;58.11
71126;BME280;58785;55.566;38.058;2023-03-21T10:27:43;99678.28;;;8.85;58.25
71126;BME280;58785;55.566;38.058;2023-03-21T10:30:51;99691.69;;;8.93;58.02
71126;BME280;58785;55.566;38.058;2023-03-21T10:33:15;99680.16;;;9.03;58.14
71126;BME280;58785;55.566;38.058;2023-03-21T10:35:44;99675.63;;;9.13;57.83
71126;BME280;58785;55.566;38.058;2023-03-21T10:38:16;99677.28;;;9.14;57.91
71126;BME280;58785;55.566;38.058;2023-03-21T10:40:43;99678.47;;;9.02;58.20
71126;BME280;58785;55.566;38.058;2023-03-21T10:45:47;99657.38;;;8.90;58.31
71126;BME280;58785;55.566;38.058;2023-03-21T10:48:13;99659.41;;;9.06;58.04
71126;BME280;58785;55.566;38.058;2023-03-21T10:50:40;99660.94;;;9.09;58.03
71126;BME280;58785;55.566;38.058;2023-03-21T10:53:18;99650.50;;;8.98;58.38
71126;BME280;58785;55.566;38.058;2023-03-21T10:55:56;99649.81;;;8.96;58.58
71126;BME280;58785;55.566;38.058;2023-03-21T10:58:30;99657.44;;;9.08;58.47
71126;BME280;58785;55.566;38.058;2023-03-21T11:01:05;99642.03;;;9.12;58.47
71126;BME280;58785;55.566;38.058;2023-03-21T11:03:36;99638.16;;;9.24;58.08
71126;BME280;58785;55.566;38.058;2023-03-21T11:06:08;99656.56;;;9.35;58.12
71126;BME280;58785;55.566;38.058;2023-03-21T11:08:44;99654.13;;;9.42;57.70
71126;BME280;58785;55.566;38.058;2023-03-21T11:11:28;99642.88;;;9.48;57.86
71126;BME280;58785;55.566;38.058;2023-03-21T11:14:03;99645.63;;;9.56;57.53
71126;BME280;58785;55.566;38.058;2023-03-21T11:16:42;99631.66;;;9.54;57.70
71126;BME280;58785;55.566;38.058;2023-03-21T11:19:32;99637.19;;;9.61;57.74
71126;BME280;58785;55.566;38.058;2023-03-21T11:22:02;99638.25;;;9.68;57.20
71126;BME280;58785;55.566;38.058;2023-03-21T11:24:30;99631.59;;;9.72;57.17
71126;BME280;58785;55.566;38.058;2023-03-21T11:26:57;99624.16;;;9.75;57.08
71126;BME280;58785;55.566;38.058;2023-03-21T11:29:37;99623.34;;;9.75;57.24
71126;BME280;58785;55.566;38.058;2023-03-21T11:32:16;99618.28;;;9.72;57.37
71126;BME280;58785;55.566;38.058;2023-03-21T11:34:50;99624.50;;;9.72;57.08
71126;BME280;58785;55.566;38.058;2023-03-21T11:37:26;99624.25;;;9.66;57.11
71126;BME280;58785;55.566;38.058;2023-03-21T11:42:42;99625.78;;;9.50;57.47
71126;BME280;58785;55.566;38.058;2023-03-21T11:47:41;99621.59;;;9.48;57.49
71126;BME280;58785;55.566;38.058;2023-03-21T11:56:02;99619.63;;;9.32;57.88
71126;BME280;58785;55.566;38.058;2023-03-21T11:58:33;99605.91;;;9.09;58.36
71126;BME280;58785;55.566;38.058;2023-03-21T12:01:07;99610.31;;;9.01;58.34
71126;BME280;58785;55.566;38.058;2023-03-21T12:06:12;99599.47;;;9.12;58.25
71126;BME280;58785;55.566;38.058;2023-03-21T12:11:41;99605.84;;;9.19;58.41
71126;BME280;58785;55.566;38.058;2023-03-21T12:14:20;99597.88;;;9.19;58.06
71126;BME280;58785;55.566;38.058;2023-03-21T12:17:11;99594.16;;;9.12;58.46
71126;BME280;58785;55.566;38.058;2023-03-21T12:19:53;99584.44;;;9.03;58.61
71126;BME280;58785;55.566;38.058;2023-03-21T12:25:24;99595.19;;;9.01;58.33
71126;BME280;58785;55.566;38.058;2023-03-21T12:31:47;99587.16;;;8.93;58.91
71126;BME280;58785;55.566;38.058;2023-03-21T12:34:24;99584.63;;;8.91;58.41
71126;BME280;58785;55.566;38.058;2023-03-21T12:37:06;99569.81;;;8.89;58.37
71126;BME280;58785;55.566;38.058;2023-03-21T12:39:36;99564.47;;;8.89;58.54
71126;BME280;58785;55.566;38.058;2023-03-21T12:44:31;99568.53;;;8.93;58.34
71126;BME280;58785;55.566;38.058;2023-03-21T12:49:31;99571.25;;;8.83;58.22
71126;BME280;58785;55.566;38.058;2023-03-21T12:52:05;99570.13;;;8.86;57.84
71126;BME280;58785;55.566;38.058;2023-03-21T12:54:45;99566.47;;;8.87;57.95
71126;BME280;58785;55.566;38.058;2023-03-21T13:00:09;99569.97;;;8.87;57.93
71126;BME280;58785;55.566;38.058;2023-03-21T13:02:54;99557.41;;;8.80;57.67
71126;BME280;58785;55.566;38.058;2023-03-21T13:08:09;99543.91;;;8.73;57.64
71126;BME280;58785;55.566;38.058;2023-03-21T13:10:38;99554.75;;;8.80;58.08
71126;BME280;58785;55.566;38.058;2023-03-21T13:27:05;99535.69;;;8.84;57.35
71126;BME280;58785;55.566;38.058;2023-03-21T13:29:41;99537.31;;;8.95;57.31
71126;BME280;58785;55.566;38.058;2023-03-21T13:35:00;99532.00;;;8.95;57.23
71126;BME280;58785;55.566;38.058;2023-03-21T13:37:31;99514.66;;;8.91;56.82
71126;BME280;58785;55.566;38.058;2023-03-21T13:40:06;99525.69;;;8.96;57.08
71126;BME280;58785;55.566;38.058;2023-03-21T13:42:43;99525.69;;;8.96;56.54
71126;BME280;58785;55.566;38.058;2023-03-21T13:45:20;99523.19;;;8.95;56.92
71126;BME280;58785;55.566;38.058;2023-03-21T13:47:53;99524.84;;;8.96;56.86
71126;BME280;58785;55.566;38.058;2023-03-21T13:55:58;99524.16;;;8.93;56.14
71126;BME280;58785;55.566;38.058;2023-03-21T13:58:40;99526.28;;;8.90;56.11
71126;BME280;58785;55.566;38.058;2023-03-21T14:01:31;99523.78;;;8.88;56.38
71126;BME280;58785;55.566;38.058;2023-03-21T14:04:19;99526.75;;;8.85;56.08
71126;BME280;58785;55.566;38.058;2023-03-21T14:06:57;99520.03;;;8.81;55.87
71126;BME280;58785;55.566;38.058;2023-03-21T14:11:57;99527.63;;;8.76;56.10
71126;BME280;58785;55.566;38.058;2023-03-21T14:14:37;99518.31;;;8.72;55.87
71126;BME280;58785;55.566;38.058;2023-03-21T14:17:20;99510.25;;;8.64;56.21
71126;BME280;58785;55.566;38.058;2023-03-21T14:19:51;99515.00;;;8.60;55.77
71126;BME280;58785;55.566;38.058;2023-03-21T14:22:17;99516.66;;;8.61;55.71
71126;BME280;58785;55.566;38.058;2023-03-21T14:25:01;99517.13;;;8.57;55.56
71126;BME280;58785;55.566;38.058;2023-03-21T14:27:32;99526.09;;;8.56;55.73
71126;BME280;58785;55.566;38.058;2023-03-21T14:29:59;99509.06;;;8.49;55.61
71126;BME280;58785;55.566;38.058;2023-03-21T14:32:28;99519.53;;;8.50;55.62
71126;BME280;58785;55.566;38.058;2023-03-21T14:34:55;99519.69;;;8.49;55.17
71126;BME280;58785;55.566;38.058;2023-03-21T14:37:37;99524.47;;;8.45;55.47
71126;BME280;58785;55.566;38.058;2023-03-21T14:40:07;99513.28;;;8.42;55.13
71126;BME280;58785;55.566;38.058;2023-03-21T14:42:45;99514.59;;;8.38;55.69
71126;BME280;58785;55.566;38.058;2023-03-21T14:45:18;99513.34;;;8.32;55.64
71126;BME280;58785;55.566;38.058;2023-03-21T14:48:04;99509.13;;;8.29;55.02
71126;BME280;58785;55.566;38.058;2023-03-21T14:50:44;99504.69;;;8.20;55.60
71126;BME280;58785;55.566;38.058;2023-03-21T14:53:20;99507.41;;;8.11;55.56
71126;BME280;58785;55.566;38.058;2023-03-21T14:56:08;99516.81;;;8.05;55.48
71126;BME280;58785;55.566;38.058;2023-03-21T14:58:38;99512.22;;;7.97;55.50
71126;BME280;58785;55.566;38.058;2023-03-21T15:01:06;99505.28;;;7.87;55.63
71126;BME280;58785;55.566;38.058;2023-03-21T15:03:39;99518.00;;;7.83;55.99